sensor_id;sensor_type;location;lat;lon;timestamp;temperature;humidity
33011;DHT22;19370;48.562;9.196;2022-09-29T00:01:32;8.40;99.90
33011;DHT22;19370;48.562;9.196;2022-09-29T00:03:58;8.40;99.90
33011;DHT22;19370;48.562;9.196;2022-09-29T00:06:23;8.50;99.90
33011;DHT22;19370;48.562;9.196;2022-09-29T00:08:49;8.60;99.90
33011;DHT22;19370;48.562;9.196;2022-09-29T00:11:17;8.60;99.90
33011;DHT22;19370;48.562;9.196;2022-09-29T00:13:44;8.50;99.90
33011;DHT22;19370;48.562;9.196;2022-09-29T00:16:11;8.60;99.90
33011;DHT22;19370;48.562;9.196;2022-09-29T00:18:38;8.60;99.90
33011;DHT22;19370;48.562;9.196;2022-09-29T00:21:07;8.60;99.90
33011;DHT22;19370;48.562;9.196;2022-09-29T00:23:34;8.60;99.90
33011;DHT22;19370;48.562;9.196;2022-09-29T00:26:02;8.70;99.90
33011;DHT22;19370;48.562;9.196;2022-09-29T00:28:29;8.70;99.90
33011;DHT22;19370;48.562;9.196;2022-09-29T00:30:58;8.60;99.90
33011;DHT22;19370;48.562;9.196;2022-09-29T00:33:25;8.70;99.90
33011;DHT22;19370;48.562;9.196;2022-09-29T00:35:59;8.80;99.90
33011;DHT22;19370;48.562;9.196;2022-09-29T00:38:26;8.70;99.90
33011;DHT22;19370;48.562;9.196;2022-09-29T00:40:53;8.70;99.90
33011;DHT22;19370;48.562;9.196;2022-09-29T00:43:44;8.70;99.90
33011;DHT22;19370;48.562;9.196;2022-09-29T00:46:10;8.80;99.90
33011;DHT22;19370;48.562;9.196;2022-09-29T00:48:37;8.80;99.90
33011;DHT22;19370;48.562;9.196;2022-09-29T00:51:04;8.70;99.90
33011;DHT22;19370;48.562;9.196;2022-09-29T00:53:30;8.80;99.90
33011;DHT22;19370;48.562;9.196;2022-09-29T00:56:06;8.80;99.90
33011;DHT22;19370;48.562;9.196;2022-09-29T00:58:43;8.80;99.90
33011;DHT22;19370;48.562;9.196;2022-09-29T01:01:12;8.80;99.90
33011;DHT22;19370;48.562;9.196;2022-09-29T01:03:42;8.80;99.90
33011;DHT22;19370;48.562;9.196;2022-09-29T01:06:14;8.90;99.90
33011;DHT22;19370;48.562;9.196;2022-09-29T01:09:00;8.90;99.90
33011;DHT22;19370;48.562;9.196;2022-09-29T01:11:26;8.90;99.90
33011;DHT22;19370;48.562;9.196;2022-09-29T01:13:53;8.80;99.90
33011;DHT22;19370;48.562;9.196;2022-09-29T01:16:20;8.90;99.90
33011;DHT22;19370;48.562;9.196;2022-09-29T01:18:46;8.90;99.90
33011;DHT22;19370;48.562;9.196;2022-09-29T01:29:38;8.70;99.90
33011;DHT22;19370;48.562;9.196;2022-09-29T01:43:20;8.40;99.90
33011;DHT22;19370;48.562;9.196;2022-09-29T01:46:08;8.50;99.90
33011;DHT22;19370;48.562;9.196;2022-09-29T01:48:39;8.40;99.90
33011;DHT22;19370;48.562;9.196;2022-09-29T01:51:12;8.40;99.90
33011;DHT22;19370;48.562;9.196;2022-09-29T01:53:47;8.40;99.90
33011;DHT22;19370;48.562;9.196;2022-09-29T01:56:37;8.40;99.90
33011;DHT22;19370;48.562;9.196;2022-09-29T02:01:38;8.20;99.90
33011;DHT22;19370;48.562;9.196;2022-09-29T02:04:31;8.20;99.90
33011;DHT22;19370;48.562;9.196;2022-09-29T02:07:05;8.20;99.90
33011;DHT22;19370;48.562;9.196;2022-09-29T02:09:37;8.20;99.90
33011;DHT22;19370;48.562;9.196;2022-09-29T02:12:13;8.20;99.90
33011;DHT22;19370;48.562;9.196;2022-09-29T02:14:44;8.10;99.90
33011;DHT22;19370;48.562;9.196;2022-09-29T02:17:16;8.10;99.90
33011;DHT22;19370;48.562;9.196;2022-09-29T02:19:45;8.20;99.90
33011;DHT22;19370;48.562;9.196;2022-09-29T02:22:12;8.10;99.90
33011;DHT22;19370;48.562;9.196;2022-09-29T02:24:38;8.10;99.90
33011;DHT22;19370;48.562;9.196;2022-09-29T02:27:05;8.00;99.90
33011;DHT22;19370;48.562;9.196;2022-09-29T02:29:32;8.20;99.90
33011;DHT22;19370;48.562;9.196;2022-09-29T02:31:59;8.10;99.90
33011;DHT22;19370;48.562;9.196;2022-09-29T02:34:30;8.20;99.90
33011;DHT22;19370;48.562;9.196;2022-09-29T02:36:58;8.20;99.90
33011;DHT22;19370;48.562;9.196;2022-09-29T02:39:57;8.20;99.90
33011;DHT22;19370;48.562;9.196;2022-09-29T02:53:44;8.20;99.90
33011;DHT22;19370;48.562;9.196;2022-09-29T02:58:58;8.30;99.90
33011;DHT22;19370;48.562;9.196;2022-09-29T03:01:28;8.30;99.90
33011;DHT22;19370;48.562;9.196;2022-09-29T03:03:54;8.20;99.90
33011;DHT22;19370;48.562;9.196;2022-09-29T03:06:20;8.30;99.90
33011;DHT22;19370;48.562;9.196;2022-09-29T03:08:46;8.30;99.90
33011;DHT22;19370;48.562;9.196;2022-09-29T03:11:11;8.40;99.90
33011;DHT22;19370;48.562;9.196;2022-09-29T03:13:37;8.40;99.90
33011;DHT22;19370;48.562;9.196;2022-09-29T03:16:03;8.40;99.90
33011;DHT22;19370;48.562;9.196;2022-09-29T03:18:29;8.30;99.90
33011;DHT22;19370;48.562;9.196;2022-09-29T03:20:54;8.40;99.90
33011;DHT22;19370;48.562;9.196;2022-09-29T03:23:21;8.40;99.90
33011;DHT22;19370;48.562;9.196;2022-09-29T03:25:47;8.30;99.90
33011;DHT22;19370;48.562;9.196;2022-09-29T03:28:12;8.30;99.90
33011;DHT22;19370;48.562;9.196;2022-09-29T03:30:38;8.30;99.90
33011;DHT22;19370;48.562;9.196;2022-09-29T03:33:04;8.30;99.90
33011;DHT22;19370;48.562;9.196;2022-09-29T03:35:30;8.20;99.90
33011;DHT22;19370;48.562;9.196;2022-09-29T03:37:59;8.10;99.90
33011;DHT22;19370;48.562;9.196;2022-09-29T03:40:26;8.20;99.90
33011;DHT22;19370;48.562;9.196;2022-09-29T03:42:52;8.20;99.90
33011;DHT22;19370;48.562;9.196;2022-09-29T03:45:19;8.20;99.90
33011;DHT22;19370;48.562;9.196;2022-09-29T03:47:44;8.20;99.90
33011;DHT22;19370;48.562;9.196;2022-09-29T03:50:10;8.20;99.90
33011;DHT22;19370;48.562;9.196;2022-09-29T03:52:36;8.20;99.90
33011;DHT22;19370;48.562;9.196;2022-09-29T03:55:02;8.20;99.90
33011;DHT22;19370;48.562;9.196;2022-09-29T03:57:28;8.20;99.90
33011;DHT22;19370;48.562;9.196;2022-09-29T03:59:53;8.10;99.90
33011;DHT22;19370;48.562;9.196;2022-09-29T04:02:19;8.10;99.90
33011;DHT22;19370;48.562;9.196;2022-09-29T04:04:45;8.00;99.90
33011;DHT22;19370;48.562;9.196;2022-09-29T04:07:11;8.00;99.90
33011;DHT22;19370;48.562;9.196;2022-09-29T04:09:37;7.90;99.90
33011;DHT22;19370;48.562;9.196;2022-09-29T04:12:03;7.90;99.90
33011;DHT22;19370;48.562;9.196;2022-09-29T04:14:29;7.90;99.90
33011;DHT22;19370;48.562;9.196;2022-09-29T04:16:54;8.00;99.90
33011;DHT22;19370;48.562;9.196;2022-09-29T04:19:20;7.90;99.90
33011;DHT22;19370;48.562;9.196;2022-09-29T04:21:46;7.90;99.90
33011;DHT22;19370;48.562;9.196;2022-09-29T04:24:12;7.90;99.90
33011;DHT22;19370;48.562;9.196;2022-09-29T04:26:37;7.90;99.90
33011;DHT22;19370;48.562;9.196;2022-09-29T04:29:04;7.80;99.90
33011;DHT22;19370;48.562;9.196;2022-09-29T04:31:30;7.80;99.90
33011;DHT22;19370;48.562;9.196;2022-09-29T04:33:56;7.80;99.90
33011;DHT22;19370;48.562;9.196;2022-09-29T04:36:21;7.80;99.90
33011;DHT22;19370;48.562;9.196;2022-09-29T04:38:47;7.80;99.90
33011;DHT22;19370;48.562;9.196;2022-09-29T04:41:15;7.90;99.90
33011;DHT22;19370;48.562;9.196;2022-09-29T04:43:40;7.80;99.90
33011;DHT22;19370;48.562;9.196;2022-09-29T04:46:07;7.80;99.90
33011;DHT22;19370;48.562;9.196;2022-09-29T04:48:33;7.80;99.90
33011;DHT22;19370;48.562;9.196;2022-09-29T04:51:01;7.80;99.90
33011;DHT22;19370;48.562;9.196;2022-09-29T04:53:27;7.70;99.90
33011;DHT22;19370;48.562;9.196;2022-09-29T04:55:53;7.80;99.90
33011;DHT22;19370;48.562;9.196;2022-09-29T04:58:19;7.80;99.90
33011;DHT22;19370;48.562;9.196;2022-09-29T05:00:45;7.80;99.90
33011;DHT22;19370;48.562;9.196;2022-09-29T05:03:10;7.80;99.90
33011;DHT22;19370;48.562;9.196;2022-09-29T05:05:36;7.80;99.90
33011;DHT22;19370;48.562;9.196;2022-09-29T05:08:03;7.90;99.90
33011;DHT22;19370;48.562;9.196;2022-09-29T05:10:29;7.90;99.90
33011;DHT22;19370;48.562;9.196;2022-09-29T05:12:55;7.90;99.90
33011;DHT22;19370;48.562;9.196;2022-09-29T05:15:21;7.90;99.90
33011;DHT22;19370;48.562;9.196;2022-09-29T05:17:47;8.00;99.90
33011;DHT22;19370;48.562;9.196;2022-09-29T05:20:13;8.00;99.90
33011;DHT22;19370;48.562;9.196;2022-09-29T05:22:39;8.10;99.90
33011;DHT22;19370;48.562;9.196;2022-09-29T05:25:05;8.10;99.90
33011;DHT22;19370;48.562;9.196;2022-09-29T05:27:35;8.20;99.90
33011;DHT22;19370;48.562;9.196;2022-09-29T05:30:01;8.20;99.90
33011;DHT22;19370;48.562;9.196;2022-09-29T05:32:27;8.20;99.90
33011;DHT22;19370;48.562;9.196;2022-09-29T05:34:53;8.10;99.90
33011;DHT22;19370;48.562;9.196;2022-09-29T05:37:19;8.00;99.90
33011;DHT22;19370;48.562;9.196;2022-09-29T05:39:44;8.10;99.90
33011;DHT22;19370;48.562;9.196;2022-09-29T05:42:12;8.10;99.90
33011;DHT22;19370;48.562;9.196;2022-09-29T05:44:38;8.00;99.90
33011;DHT22;19370;48.562;9.196;2022-09-29T05:47:04;8.10;99.90
33011;DHT22;19370;48.562;9.196;2022-09-29T05:49:29;8.00;99.90
33011;DHT22;19370;48.562;9.196;2022-09-29T05:51:57;7.90;99.90
33011;DHT22;19370;48.562;9.196;2022-09-29T05:54:23;7.90;99.90
33011;DHT22;19370;48.562;9.196;2022-09-29T05:56:49;7.80;99.90
33011;DHT22;19370;48.562;9.196;2022-09-29T05:59:15;7.90;99.90
33011;DHT22;19370;48.562;9.196;2022-09-29T06:01:41;7.90;99.90
33011;DHT22;19370;48.562;9.196;2022-09-29T06:04:07;7.90;99.90
33011;DHT22;19370;48.562;9.196;2022-09-29T06:06:33;7.90;99.90
33011;DHT22;19370;48.562;9.196;2022-09-29T06:09:01;7.90;99.90
33011;DHT22;19370;48.562;9.196;2022-09-29T06:11:29;7.80;99.90
33011;DHT22;19370;48.562;9.196;2022-09-29T06:13:57;7.80;99.90
33011;DHT22;19370;48.562;9.196;2022-09-29T06:16:25;7.90;99.90
33011;DHT22;19370;48.562;9.196;2022-09-29T06:18:51;7.90;99.90
33011;DHT22;19370;48.562;9.196;2022-09-29T06:21:22;7.90;99.90
33011;DHT22;19370;48.562;9.196;2022-09-29T06:23:49;7.90;99.90
33011;DHT22;19370;48.562;9.196;2022-09-29T06:26:17;8.00;99.90
33011;DHT22;19370;48.562;9.196;2022-09-29T06:28:43;8.10;99.90
33011;DHT22;19370;48.562;9.196;2022-09-29T06:31:20;8.20;99.90
33011;DHT22;19370;48.562;9.196;2022-09-29T06:33:46;8.20;99.90
33011;DHT22;19370;48.562;9.196;2022-09-29T06:36:20;8.20;99.90
33011;DHT22;19370;48.562;9.196;2022-09-29T06:39:07;8.30;99.90
33011;DHT22;19370;48.562;9.196;2022-09-29T06:41:33;8.30;99.90
33011;DHT22;19370;48.562;9.196;2022-09-29T06:44:00;8.40;99.90
33011;DHT22;19370;48.562;9.196;2022-09-29T06:46:26;8.50;99.90
33011;DHT22;19370;48.562;9.196;2022-09-29T06:48:53;8.50;99.90
33011;DHT22;19370;48.562;9.196;2022-09-29T06:51:19;8.60;99.90
33011;DHT22;19370;48.562;9.196;2022-09-29T06:53:47;8.60;99.90
33011;DHT22;19370;48.562;9.196;2022-09-29T06:56:14;8.60;99.90
33011;DHT22;19370;48.562;9.196;2022-09-29T06:58:40;8.70;99.90
33011;DHT22;19370;48.562;9.196;2022-09-29T07:01:06;8.80;99.90
33011;DHT22;19370;48.562;9.196;2022-09-29T07:03:32;8.80;99.90
33011;DHT22;19370;48.562;9.196;2022-09-29T07:06:04;8.90;99.90
33011;DHT22;19370;48.562;9.196;2022-09-29T07:08:30;8.90;99.90
33011;DHT22;19370;48.562;9.196;2022-09-29T07:10:56;9.00;99.90
33011;DHT22;19370;48.562;9.196;2022-09-29T07:13:24;9.10;99.90
33011;DHT22;19370;48.562;9.196;2022-09-29T07:15:50;9.10;99.90
33011;DHT22;19370;48.562;9.196;2022-09-29T07:18:16;9.10;99.90
33011;DHT22;19370;48.562;9.196;2022-09-29T07:20:41;9.10;99.90
33011;DHT22;19370;48.562;9.196;2022-09-29T07:23:07;9.10;99.90
33011;DHT22;19370;48.562;9.196;2022-09-29T07:25:33;9.20;99.90
33011;DHT22;19370;48.562;9.196;2022-09-29T07:28:00;9.30;99.90
33011;DHT22;19370;48.562;9.196;2022-09-29T07:30:26;9.30;99.90
33011;DHT22;19370;48.562;9.196;2022-09-29T07:32:56;9.30;99.90
33011;DHT22;19370;48.562;9.196;2022-09-29T07:35:22;9.30;99.90
33011;DHT22;19370;48.562;9.196;2022-09-29T07:37:52;9.30;99.90
33011;DHT22;19370;48.562;9.196;2022-09-29T07:40:20;9.30;99.90
33011;DHT22;19370;48.562;9.196;2022-09-29T07:42:46;9.20;99.90
33011;DHT22;19370;48.562;9.196;2022-09-29T07:45:12;9.20;99.90
33011;DHT22;19370;48.562;9.196;2022-09-29T07:47:38;9.20;99.90
33011;DHT22;19370;48.562;9.196;2022-09-29T07:50:04;9.30;99.90
33011;DHT22;19370;48.562;9.196;2022-09-29T07:52:30;9.40;99.90
33011;DHT22;19370;48.562;9.196;2022-09-29T07:54:56;9.40;99.90
33011;DHT22;19370;48.562;9.196;2022-09-29T07:57:22;9.40;99.90
33011;DHT22;19370;48.562;9.196;2022-09-29T07:59:47;9.50;99.90
33011;DHT22;19370;48.562;9.196;2022-09-29T08:02:13;9.60;99.90
33011;DHT22;19370;48.562;9.196;2022-09-29T08:04:39;9.60;99.90
33011;DHT22;19370;48.562;9.196;2022-09-29T08:07:05;9.70;99.90
33011;DHT22;19370;48.562;9.196;2022-09-29T08:09:31;9.80;99.90
33011;DHT22;19370;48.562;9.196;2022-09-29T08:11:57;9.80;99.90
33011;DHT22;19370;48.562;9.196;2022-09-29T08:14:23;9.90;99.90
33011;DHT22;19370;48.562;9.196;2022-09-29T08:16:49;10.00;99.90
33011;DHT22;19370;48.562;9.196;2022-09-29T08:19:15;10.10;99.90
33011;DHT22;19370;48.562;9.196;2022-09-29T08:21:40;10.10;99.90
33011;DHT22;19370;48.562;9.196;2022-09-29T08:24:06;10.10;99.90
33011;DHT22;19370;48.562;9.196;2022-09-29T08:26:34;10.20;99.90
33011;DHT22;19370;48.562;9.196;2022-09-29T08:29:01;10.20;99.90
33011;DHT22;19370;48.562;9.196;2022-09-29T08:31:27;10.20;99.90
33011;DHT22;19370;48.562;9.196;2022-09-29T08:33:55;10.20;99.90
33011;DHT22;19370;48.562;9.196;2022-09-29T08:36:23;10.10;99.90
33011;DHT22;19370;48.562;9.196;2022-09-29T08:38:52;10.20;99.90
33011;DHT22;19370;48.562;9.196;2022-09-29T08:43:47;10.50;99.90
33011;DHT22;19370;48.562;9.196;2022-09-29T08:46:29;10.60;99.90
33011;DHT22;19370;48.562;9.196;2022-09-29T08:48:58;10.70;99.90
33011;DHT22;19370;48.562;9.196;2022-09-29T08:51:38;10.90;99.90
33011;DHT22;19370;48.562;9.196;2022-09-29T08:54:19;11.10;99.90
33011;DHT22;19370;48.562;9.196;2022-09-29T08:56:47;11.20;99.90
33011;DHT22;19370;48.562;9.196;2022-09-29T08:59:12;11.10;99.90
33011;DHT22;19370;48.562;9.196;2022-09-29T09:01:48;11.20;99.90
33011;DHT22;19370;48.562;9.196;2022-09-29T09:13:15;11.60;99.90
33011;DHT22;19370;48.562;9.196;2022-09-29T09:15:50;11.80;99.90
33011;DHT22;19370;48.562;9.196;2022-09-29T09:26:13;12.20;99.90
33011;DHT22;19370;48.562;9.196;2022-09-29T09:28:51;12.10;99.90
33011;DHT22;19370;48.562;9.196;2022-09-29T09:36:57;12.10;99.90
33011;DHT22;19370;48.562;9.196;2022-09-29T09:39:34;12.00;99.90
33011;DHT22;19370;48.562;9.196;2022-09-29T09:42:05;12.10;99.90
33011;DHT22;19370;48.562;9.196;2022-09-29T09:44:37;12.10;99.90
33011;DHT22;19370;48.562;9.196;2022-09-29T09:49:50;12.00;99.90
33011;DHT22;19370;48.562;9.196;2022-09-29T09:52:43;12.00;99.90
33011;DHT22;19370;48.562;9.196;2022-09-29T09:55:22;12.10;99.90
33011;DHT22;19370;48.562;9.196;2022-09-29T10:00:53;12.20;99.90
33011;DHT22;19370;48.562;9.196;2022-09-29T10:03:17;12.10;99.90
33011;DHT22;19370;48.562;9.196;2022-09-29T10:05:44;12.10;99.90
33011;DHT22;19370;48.562;9.196;2022-09-29T10:10:49;12.40;99.90
33011;DHT22;19370;48.562;9.196;2022-09-29T10:13:15;12.50;99.90
33011;DHT22;19370;48.562;9.196;2022-09-29T10:20:46;12.30;99.90
33011;DHT22;19370;48.562;9.196;2022-09-29T10:23:19;12.20;99.90
33011;DHT22;19370;48.562;9.196;2022-09-29T10:25:54;12.30;99.90
33011;DHT22;19370;48.562;9.196;2022-09-29T10:28:23;12.30;99.90
33011;DHT22;19370;48.562;9.196;2022-09-29T10:30:51;12.40;99.90
33011;DHT22;19370;48.562;9.196;2022-09-29T10:33:22;12.40;99.90
33011;DHT22;19370;48.562;9.196;2022-09-29T10:35:50;12.50;99.90
33011;DHT22;19370;48.562;9.196;2022-09-29T10:38:28;12.50;99.90
33011;DHT22;19370;48.562;9.196;2022-09-29T10:40:59;12.70;99.90
33011;DHT22;19370;48.562;9.196;2022-09-29T10:43:39;12.80;99.90
33011;DHT22;19370;48.562;9.196;2022-09-29T10:49:14;12.80;99.90
33011;DHT22;19370;48.562;9.196;2022-09-29T10:54:27;13.00;99.90
33011;DHT22;19370;48.562;9.196;2022-09-29T10:56:54;13.00;99.90
33011;DHT22;19370;48.562;9.196;2022-09-29T10:59:22;13.10;99.90
33011;DHT22;19370;48.562;9.196;2022-09-29T11:01:58;13.10;99.90
33011;DHT22;19370;48.562;9.196;2022-09-29T11:04:28;13.20;99.90
33011;DHT22;19370;48.562;9.196;2022-09-29T11:07:03;13.30;99.90
33011;DHT22;19370;48.562;9.196;2022-09-29T11:09:40;13.40;99.90
33011;DHT22;19370;48.562;9.196;2022-09-29T11:14:50;13.60;99.90
33011;DHT22;19370;48.562;9.196;2022-09-29T11:17:25;13.80;99.90
33011;DHT22;19370;48.562;9.196;2022-09-29T11:19:59;14.10;99.90
33011;DHT22;19370;48.562;9.196;2022-09-29T11:36:05;16.20;99.90
33011;DHT22;19370;48.562;9.196;2022-09-29T11:42:15;17.00;99.90
33011;DHT22;19370;48.562;9.196;2022-09-29T12:00:44;17.30;99.90
33011;DHT22;19370;48.562;9.196;2022-09-29T12:03:20;17.70;99.90
33011;DHT22;19370;48.562;9.196;2022-09-29T12:11:28;18.00;97.50
33011;DHT22;19370;48.562;9.196;2022-09-29T12:14:21;18.20;97.90
33011;DHT22;19370;48.562;9.196;2022-09-29T12:16:55;18.40;99.30
33011;DHT22;19370;48.562;9.196;2022-09-29T12:19:32;17.90;99.90
33011;DHT22;19370;48.562;9.196;2022-09-29T12:22:00;17.50;98.90
33011;DHT22;19370;48.562;9.196;2022-09-29T12:27:37;17.10;99.10
33011;DHT22;19370;48.562;9.196;2022-09-29T12:33:06;17.20;98.90
33011;DHT22;19370;48.562;9.196;2022-09-29T12:35:45;16.80;99.50
33011;DHT22;19370;48.562;9.196;2022-09-29T12:38:24;16.80;98.80
33011;DHT22;19370;48.562;9.196;2022-09-29T12:41:20;16.80;99.20
33011;DHT22;19370;48.562;9.196;2022-09-29T12:46:36;16.60;99.90
33011;DHT22;19370;48.562;9.196;2022-09-29T12:49:25;16.60;99.50
33011;DHT22;19370;48.562;9.196;2022-09-29T12:51:55;15.90;99.60
33011;DHT22;19370;48.562;9.196;2022-09-29T12:59:38;15.50;99.90
33011;DHT22;19370;48.562;9.196;2022-09-29T13:05:27;15.00;99.90
33011;DHT22;19370;48.562;9.196;2022-09-29T13:23:19;14.50;99.90
33011;DHT22;19370;48.562;9.196;2022-09-29T13:28:38;14.60;99.90
33011;DHT22;19370;48.562;9.196;2022-09-29T13:31:09;14.70;99.90
33011;DHT22;19370;48.562;9.196;2022-09-29T13:33:36;14.80;99.90
33011;DHT22;19370;48.562;9.196;2022-09-29T13:36:02;14.90;99.90
33011;DHT22;19370;48.562;9.196;2022-09-29T13:38:33;15.00;99.90
33011;DHT22;19370;48.562;9.196;2022-09-29T13:44:24;15.20;99.90
33011;DHT22;19370;48.562;9.196;2022-09-29T13:51:59;15.30;99.90
33011;DHT22;19370;48.562;9.196;2022-09-29T13:54:44;15.50;99.90
33011;DHT22;19370;48.562;9.196;2022-09-29T14:04:52;15.70;99.90
33011;DHT22;19370;48.562;9.196;2022-09-29T14:07:42;15.60;99.90
33011;DHT22;19370;48.562;9.196;2022-09-29T14:13:45;15.30;99.90
33011;DHT22;19370;48.562;9.196;2022-09-29T14:21:00;14.60;99.90
33011;DHT22;19370;48.562;9.196;2022-09-29T14:26:50;14.60;99.90
33011;DHT22;19370;48.562;9.196;2022-09-29T14:29:17;14.60;99.90
33011;DHT22;19370;48.562;9.196;2022-09-29T14:31:48;14.40;99.90
33011;DHT22;19370;48.562;9.196;2022-09-29T14:34:16;14.20;99.90
33011;DHT22;19370;48.562;9.196;2022-09-29T14:36:45;14.10;99.90
33011;DHT22;19370;48.562;9.196;2022-09-29T14:39:13;14.10;99.90
33011;DHT22;19370;48.562;9.196;2022-09-29T14:41:45;14.00;99.90
33011;DHT22;19370;48.562;9.196;2022-09-29T14:47:12;13.80;99.90
33011;DHT22;19370;48.562;9.196;2022-09-29T14:55:18;13.60;99.90
33011;DHT22;19370;48.562;9.196;2022-09-29T15:01:36;13.50;99.90
33011;DHT22;19370;48.562;9.196;2022-09-29T15:04:24;13.60;99.90
33011;DHT22;19370;48.562;9.196;2022-09-29T15:06:51;13.40;99.90
33011;DHT22;19370;48.562;9.196;2022-09-29T15:11:54;13.30;99.90
33011;DHT22;19370;48.562;9.196;2022-09-29T15:14:33;13.30;99.90
33011;DHT22;19370;48.562;9.196;2022-09-29T15:17:15;13.20;99.90
33011;DHT22;19370;48.562;9.196;2022-09-29T15:25:34;13.20;99.90
33011;DHT22;19370;48.562;9.196;2022-09-29T15:30:36;13.20;99.90
33011;DHT22;19370;48.562;9.196;2022-09-29T15:33:23;13.10;99.90
33011;DHT22;19370;48.562;9.196;2022-09-29T15:36:18;13.10;99.90
33011;DHT22;19370;48.562;9.196;2022-09-29T15:38:42;13.00;99.90
33011;DHT22;19370;48.562;9.196;2022-09-29T15:43:51;13.00;99.90
33011;DHT22;19370;48.562;9.196;2022-09-29T15:46:20;13.00;99.90
33011;DHT22;19370;48.562;9.196;2022-09-29T15:51:32;12.80;99.90
33011;DHT22;19370;48.562;9.196;2022-09-29T15:54:01;12.80;99.90
33011;DHT22;19370;48.562;9.196;2022-09-29T15:56:30;12.80;99.90
33011;DHT22;19370;48.562;9.196;2022-09-29T15:58:58;12.70;99.90
33011;DHT22;19370;48.562;9.196;2022-09-29T16:01:24;12.60;99.90
33011;DHT22;19370;48.562;9.196;2022-09-29T16:03:56;12.70;99.90
33011;DHT22;19370;48.562;9.196;2022-09-29T16:06:29;12.70;99.90
33011;DHT22;19370;48.562;9.196;2022-09-29T16:09:12;12.60;99.90
33011;DHT22;19370;48.562;9.196;2022-09-29T16:11:41;12.50;99.90
33011;DHT22;19370;48.562;9.196;2022-09-29T16:14:22;12.50;99.90
33011;DHT22;19370;48.562;9.196;2022-09-29T16:16:53;12.50;99.90
33011;DHT22;19370;48.562;9.196;2022-09-29T16:21:56;12.40;99.90
33011;DHT22;19370;48.562;9.196;2022-09-29T16:24:27;12.30;99.90
33011;DHT22;19370;48.562;9.196;2022-09-29T16:26:56;12.30;99.90
33011;DHT22;19370;48.562;9.196;2022-09-29T16:29:36;12.20;99.90
33011;DHT22;19370;48.562;9.196;2022-09-29T16:35:35;12.10;99.90
33011;DHT22;19370;48.562;9.196;2022-09-29T16:38:31;12.20;99.90
33011;DHT22;19370;48.562;9.196;2022-09-29T16:44:32;12.20;99.90
33011;DHT22;19370;48.562;9.196;2022-09-29T16:47:23;12.10;99.90
33011;DHT22;19370;48.562;9.196;2022-09-29T16:49:59;12.10;99.90
33011;DHT22;19370;48.562;9.196;2022-09-29T16:52:49;12.00;99.90
33011;DHT22;19370;48.562;9.196;2022-09-29T17:00:21;11.90;99.90
33011;DHT22;19370;48.562;9.196;2022-09-29T17:02:54;11.90;99.90
33011;DHT22;19370;48.562;9.196;2022-09-29T17:05:20;11.80;99.90
33011;DHT22;19370;48.562;9.196;2022-09-29T17:07:47;11.80;99.90
33011;DHT22;19370;48.562;9.196;2022-09-29T17:10:19;11.80;99.90
33011;DHT22;19370;48.562;9.196;2022-09-29T17:12:48;11.80;99.90
33011;DHT22;19370;48.562;9.196;2022-09-29T17:15:16;11.80;99.90
33011;DHT22;19370;48.562;9.196;2022-09-29T17:17:46;11.70;99.90
33011;DHT22;19370;48.562;9.196;2022-09-29T17:20:14;11.60;99.90
33011;DHT22;19370;48.562;9.196;2022-09-29T17:22:41;11.60;99.90
33011;DHT22;19370;48.562;9.196;2022-09-29T17:25:08;11.70;99.90
33011;DHT22;19370;48.562;9.196;2022-09-29T17:27:35;11.70;99.90
33011;DHT22;19370;48.562;9.196;2022-09-29T17:30:21;11.70;99.90
33011;DHT22;19370;48.562;9.196;2022-09-29T17:32:49;11.70;99.90
33011;DHT22;19370;48.562;9.196;2022-09-29T17:35:17;11.60;99.90
33011;DHT22;19370;48.562;9.196;2022-09-29T17:37:44;11.70;99.90
33011;DHT22;19370;48.562;9.196;2022-09-29T17:40:17;11.60;99.90
33011;DHT22;19370;48.562;9.196;2022-09-29T17:42:46;11.60;99.90
33011;DHT22;19370;48.562;9.196;2022-09-29T17:45:13;11.60;99.90
33011;DHT22;19370;48.562;9.196;2022-09-29T17:47:43;11.60;99.90
33011;DHT22;19370;48.562;9.196;2022-09-29T17:52:41;11.50;99.90
33011;DHT22;19370;48.562;9.196;2022-09-29T17:55:08;11.50;99.90
33011;DHT22;19370;48.562;9.196;2022-09-29T17:57:37;11.50;99.90
33011;DHT22;19370;48.562;9.196;2022-09-29T18:00:10;11.50;99.90
33011;DHT22;19370;48.562;9.196;2022-09-29T18:02:39;11.50;99.90
33011;DHT22;19370;48.562;9.196;2022-09-29T18:05:05;11.40;99.90
33011;DHT22;19370;48.562;9.196;2022-09-29T18:07:32;11.50;99.90
33011;DHT22;19370;48.562;9.196;2022-09-29T18:09:58;11.40;99.90
33011;DHT22;19370;48.562;9.196;2022-09-29T18:12:24;11.40;99.90
33011;DHT22;19370;48.562;9.196;2022-09-29T18:14:49;11.40;99.90
33011;DHT22;19370;48.562;9.196;2022-09-29T18:17:15;11.40;99.90
33011;DHT22;19370;48.562;9.196;2022-09-29T18:19:41;11.40;99.90
33011;DHT22;19370;48.562;9.196;2022-09-29T18:22:07;11.40;99.90
33011;DHT22;19370;48.562;9.196;2022-09-29T18:24:33;11.30;99.90
33011;DHT22;19370;48.562;9.196;2022-09-29T18:26:59;11.30;99.90
33011;DHT22;19370;48.562;9.196;2022-09-29T18:29:25;11.30;99.90
33011;DHT22;19370;48.562;9.196;2022-09-29T18:31:51;11.30;99.90
33011;DHT22;19370;48.562;9.196;2022-09-29T18:34:19;11.30;99.90
33011;DHT22;19370;48.562;9.196;2022-09-29T18:36:47;11.20;99.90
33011;DHT22;19370;48.562;9.196;2022-09-29T18:39:13;11.30;99.90
33011;DHT22;19370;48.562;9.196;2022-09-29T18:41:39;11.20;99.90
33011;DHT22;19370;48.562;9.196;2022-09-29T18:44:24;11.20;99.90
33011;DHT22;19370;48.562;9.196;2022-09-29T18:46:56;11.20;99.90
33011;DHT22;19370;48.562;9.196;2022-09-29T18:49:22;11.20;99.90
33011;DHT22;19370;48.562;9.196;2022-09-29T18:51:49;11.20;99.90
33011;DHT22;19370;48.562;9.196;2022-09-29T18:54:17;11.20;99.90
33011;DHT22;19370;48.562;9.196;2022-09-29T18:56:43;11.20;99.90
33011;DHT22;19370;48.562;9.196;2022-09-29T18:59:10;11.20;99.90
33011;DHT22;19370;48.562;9.196;2022-09-29T19:01:37;11.20;99.90
33011;DHT22;19370;48.562;9.196;2022-09-29T19:04:03;11.20;99.90
33011;DHT22;19370;48.562;9.196;2022-09-29T19:06:30;11.20;99.90
33011;DHT22;19370;48.562;9.196;2022-09-29T19:08:57;11.10;99.90
33011;DHT22;19370;48.562;9.196;2022-09-29T19:11:25;11.10;99.90
33011;DHT22;19370;48.562;9.196;2022-09-29T19:13:52;11.10;99.90
33011;DHT22;19370;48.562;9.196;2022-09-29T19:16:22;11.10;99.90
33011;DHT22;19370;48.562;9.196;2022-09-29T19:18:48;11.10;99.90
33011;DHT22;19370;48.562;9.196;2022-09-29T19:21:14;11.10;99.90
33011;DHT22;19370;48.562;9.196;2022-09-29T19:23:41;11.10;99.90
33011;DHT22;19370;48.562;9.196;2022-09-29T19:26:13;11.10;99.90
33011;DHT22;19370;48.562;9.196;2022-09-29T19:28:39;11.10;99.90
33011;DHT22;19370;48.562;9.196;2022-09-29T19:31:07;11.00;99.90
33011;DHT22;19370;48.562;9.196;2022-09-29T19:33:37;11.10;99.90
33011;DHT22;19370;48.562;9.196;2022-09-29T19:36:06;11.00;99.90
33011;DHT22;19370;48.562;9.196;2022-09-29T19:38:35;11.00;99.90
33011;DHT22;19370;48.562;9.196;2022-09-29T19:41:02;11.00;99.90
33011;DHT22;19370;48.562;9.196;2022-09-29T19:43:29;11.00;99.90